sensor_id;sensor_type;location;lat;lon;timestamp;temperature;humidity
16287;DHT22;8251;53.568;10.018;2023-04-24T00:00:53;17.00;78.60
16287;DHT22;8251;53.568;10.018;2023-04-24T00:03:23;17.00;78.90
16287;DHT22;8251;53.568;10.018;2023-04-24T00:05:56;17.00;78.70
16287;DHT22;8251;53.568;10.018;2023-04-24T00:08:28;17.00;78.80
16287;DHT22;8251;53.568;10.018;2023-04-24T00:10:56;17.00;79.10
16287;DHT22;8251;53.568;10.018;2023-04-24T00:13:25;17.00;79.20
16287;DHT22;8251;53.568;10.018;2023-04-24T00:15:54;17.00;79.20
16287;DHT22;8251;53.568;10.018;2023-04-24T00:18:23;16.90;79.50
16287;DHT22;8251;53.568;10.018;2023-04-24T00:20:50;16.90;79.60
16287;DHT22;8251;53.568;10.018;2023-04-24T00:23:17;16.90;79.80
16287;DHT22;8251;53.568;10.018;2023-04-24T00:25:46;16.90;79.70
16287;DHT22;8251;53.568;10.018;2023-04-24T00:28:16;16.90;79.50
16287;DHT22;8251;53.568;10.018;2023-04-24T00:30:43;16.90;79.10
16287;DHT22;8251;53.568;10.018;2023-04-24T00:33:09;16.90;79.00
16287;DHT22;8251;53.568;10.018;2023-04-24T00:35:36;16.90;78.80
16287;DHT22;8251;53.568;10.018;2023-04-24T00:38:03;16.90;79.10
16287;DHT22;8251;53.568;10.018;2023-04-24T00:40:34;16.90;79.00
16287;DHT22;8251;53.568;10.018;2023-04-24T00:43:07;16.90;79.30
16287;DHT22;8251;53.568;10.018;2023-04-24T00:45:34;16.80;78.70
16287;DHT22;8251;53.568;10.018;2023-04-24T00:48:04;16.80;78.90
16287;DHT22;8251;53.568;10.018;2023-04-24T00:50:31;16.80;79.00
16287;DHT22;8251;53.568;10.018;2023-04-24T00:53:00;16.70;79.20
16287;DHT22;8251;53.568;10.018;2023-04-24T00:55:27;16.70;79.20
16287;DHT22;8251;53.568;10.018;2023-04-24T00:57:54;16.70;79.40
16287;DHT22;8251;53.568;10.018;2023-04-24T01:00:26;16.70;79.40
16287;DHT22;8251;53.568;10.018;2023-04-24T01:02:53;16.70;79.40
16287;DHT22;8251;53.568;10.018;2023-04-24T01:05:19;16.70;79.20
16287;DHT22;8251;53.568;10.018;2023-04-24T01:07:46;16.70;79.20
16287;DHT22;8251;53.568;10.018;2023-04-24T01:10:15;16.70;79.20
16287;DHT22;8251;53.568;10.018;2023-04-24T01:12:43;16.70;79.10
16287;DHT22;8251;53.568;10.018;2023-04-24T01:15:10;16.60;79.30
16287;DHT22;8251;53.568;10.018;2023-04-24T01:17:38;16.60;79.10
16287;DHT22;8251;53.568;10.018;2023-04-24T01:20:09;16.60;79.30
16287;DHT22;8251;53.568;10.018;2023-04-24T01:22:41;16.60;79.30
16287;DHT22;8251;53.568;10.018;2023-04-24T01:25:11;16.60;79.10
16287;DHT22;8251;53.568;10.018;2023-04-24T01:27:38;16.60;78.70
16287;DHT22;8251;53.568;10.018;2023-04-24T01:30:06;16.50;78.80
16287;DHT22;8251;53.568;10.018;2023-04-24T01:32:33;16.50;78.50
16287;DHT22;8251;53.568;10.018;2023-04-24T01:35:02;16.50;78.40
16287;DHT22;8251;53.568;10.018;2023-04-24T01:37:31;16.50;78.10
16287;DHT22;8251;53.568;10.018;2023-04-24T01:40:00;16.50;78.00
16287;DHT22;8251;53.568;10.018;2023-04-24T01:42:27;16.40;77.90
16287;DHT22;8251;53.568;10.018;2023-04-24T01:44:54;16.40;77.90
16287;DHT22;8251;53.568;10.018;2023-04-24T01:47:21;16.40;78.10
16287;DHT22;8251;53.568;10.018;2023-04-24T01:49:48;16.40;78.10
16287;DHT22;8251;53.568;10.018;2023-04-24T01:52:19;16.40;77.80
16287;DHT22;8251;53.568;10.018;2023-04-24T01:54:48;16.40;77.70
16287;DHT22;8251;53.568;10.018;2023-04-24T01:57:17;16.40;77.30
16287;DHT22;8251;53.568;10.018;2023-04-24T01:59:44;16.30;77.40
16287;DHT22;8251;53.568;10.018;2023-04-24T02:02:11;16.30;77.90
16287;DHT22;8251;53.568;10.018;2023-04-24T02:04:38;16.20;78.00
16287;DHT22;8251;53.568;10.018;2023-04-24T02:07:08;16.20;78.10
16287;DHT22;8251;53.568;10.018;2023-04-24T02:09:35;16.10;78.10
16287;DHT22;8251;53.568;10.018;2023-04-24T02:12:02;16.10;78.10
16287;DHT22;8251;53.568;10.018;2023-04-24T02:14:30;16.10;78.30
16287;DHT22;8251;53.568;10.018;2023-04-24T02:16:57;16.10;78.40
16287;DHT22;8251;53.568;10.018;2023-04-24T02:19:24;16.10;79.30
16287;DHT22;8251;53.568;10.018;2023-04-24T02:21:51;16.10;78.30
16287;DHT22;8251;53.568;10.018;2023-04-24T02:24:18;16.00;78.30
16287;DHT22;8251;53.568;10.018;2023-04-24T02:26:45;16.00;78.30
16287;DHT22;8251;53.568;10.018;2023-04-24T02:29:12;16.00;78.20
16287;DHT22;8251;53.568;10.018;2023-04-24T02:31:43;16.00;78.40
16287;DHT22;8251;53.568;10.018;2023-04-24T02:34:09;16.00;78.50
16287;DHT22;8251;53.568;10.018;2023-04-24T02:36:36;16.00;78.50
16287;DHT22;8251;53.568;10.018;2023-04-24T02:39:03;16.00;78.40
16287;DHT22;8251;53.568;10.018;2023-04-24T02:41:30;16.00;78.30
16287;DHT22;8251;53.568;10.018;2023-04-24T02:44:03;16.00;78.30
16287;DHT22;8251;53.568;10.018;2023-04-24T02:46:30;16.00;78.30
16287;DHT22;8251;53.568;10.018;2023-04-24T02:48:58;16.00;78.30
16287;DHT22;8251;53.568;10.018;2023-04-24T02:51:25;16.00;78.10
16287;DHT22;8251;53.568;10.018;2023-04-24T02:53:52;15.90;77.90
16287;DHT22;8251;53.568;10.018;2023-04-24T02:56:19;15.90;78.10
16287;DHT22;8251;53.568;10.018;2023-04-24T02:58:46;15.90;78.10
16287;DHT22;8251;53.568;10.018;2023-04-24T03:01:16;15.90;77.80
16287;DHT22;8251;53.568;10.018;2023-04-24T03:03:44;15.80;77.90
16287;DHT22;8251;53.568;10.018;2023-04-24T03:06:12;15.80;77.70
16287;DHT22;8251;53.568;10.018;2023-04-24T03:08:42;15.80;77.60
16287;DHT22;8251;53.568;10.018;2023-04-24T03:11:09;15.70;77.60
16287;DHT22;8251;53.568;10.018;2023-04-24T03:13:39;15.70;77.80
16287;DHT22;8251;53.568;10.018;2023-04-24T03:16:06;15.60;77.80
16287;DHT22;8251;53.568;10.018;2023-04-24T03:18:32;15.60;77.80
16287;DHT22;8251;53.568;10.018;2023-04-24T03:21:00;15.50;77.70
16287;DHT22;8251;53.568;10.018;2023-04-24T03:23:32;15.50;77.90
16287;DHT22;8251;53.568;10.018;2023-04-24T03:25:59;15.50;77.60
16287;DHT22;8251;53.568;10.018;2023-04-24T03:28:26;15.50;77.50
16287;DHT22;8251;53.568;10.018;2023-04-24T03:30:56;15.50;77.50
16287;DHT22;8251;53.568;10.018;2023-04-24T03:33:23;15.50;77.20
16287;DHT22;8251;53.568;10.018;2023-04-24T03:35:50;15.40;76.50
16287;DHT22;8251;53.568;10.018;2023-04-24T03:38:17;15.40;76.90
16287;DHT22;8251;53.568;10.018;2023-04-24T03:40:45;15.30;77.10
16287;DHT22;8251;53.568;10.018;2023-04-24T03:43:12;15.30;77.50
16287;DHT22;8251;53.568;10.018;2023-04-24T03:45:39;15.30;77.90
16287;DHT22;8251;53.568;10.018;2023-04-24T03:48:06;15.30;78.00
16287;DHT22;8251;53.568;10.018;2023-04-24T03:50:35;15.20;77.30
16287;DHT22;8251;53.568;10.018;2023-04-24T03:53:02;15.10;77.50
16287;DHT22;8251;53.568;10.018;2023-04-24T03:55:29;15.10;77.60
16287;DHT22;8251;53.568;10.018;2023-04-24T03:58:00;15.10;77.70
16287;DHT22;8251;53.568;10.018;2023-04-24T04:00:26;15.10;78.10
16287;DHT22;8251;53.568;10.018;2023-04-24T04:02:54;15.10;76.30
16287;DHT22;8251;53.568;10.018;2023-04-24T04:05:20;15.10;75.90
16287;DHT22;8251;53.568;10.018;2023-04-24T04:07:50;15.10;75.10
16287;DHT22;8251;53.568;10.018;2023-04-24T04:10:17;15.10;75.30
16287;DHT22;8251;53.568;10.018;2023-04-24T04:12:44;15.10;74.60
16287;DHT22;8251;53.568;10.018;2023-04-24T04:15:12;15.10;74.40
16287;DHT22;8251;53.568;10.018;2023-04-24T04:17:39;15.10;74.30
16287;DHT22;8251;53.568;10.018;2023-04-24T04:20:09;15.10;73.90
16287;DHT22;8251;53.568;10.018;2023-04-24T04:22:36;15.10;73.00
16287;DHT22;8251;53.568;10.018;2023-04-24T04:25:06;15.00;72.40
16287;DHT22;8251;53.568;10.018;2023-04-24T04:27:34;15.00;72.70
16287;DHT22;8251;53.568;10.018;2023-04-24T04:30:02;15.00;72.40
16287;DHT22;8251;53.568;10.018;2023-04-24T04:32:31;15.10;72.80
16287;DHT22;8251;53.568;10.018;2023-04-24T04:35:01;15.00;73.00
16287;DHT22;8251;53.568;10.018;2023-04-24T04:37:29;15.00;73.00
16287;DHT22;8251;53.568;10.018;2023-04-24T04:39:56;14.90;71.70
16287;DHT22;8251;53.568;10.018;2023-04-24T04:42:24;14.90;72.00
16287;DHT22;8251;53.568;10.018;2023-04-24T04:44:51;14.90;72.10
16287;DHT22;8251;53.568;10.018;2023-04-24T04:47:21;15.00;72.00
16287;DHT22;8251;53.568;10.018;2023-04-24T04:49:51;15.00;72.20
16287;DHT22;8251;53.568;10.018;2023-04-24T04:52:18;15.00;71.50
16287;DHT22;8251;53.568;10.018;2023-04-24T04:54:45;15.00;71.40
16287;DHT22;8251;53.568;10.018;2023-04-24T04:57:13;15.10;71.20
16287;DHT22;8251;53.568;10.018;2023-04-24T04:59:42;15.20;70.80
16287;DHT22;8251;53.568;10.018;2023-04-24T05:02:09;15.20;70.20
16287;DHT22;8251;53.568;10.018;2023-04-24T05:04:40;15.20;70.20
16287;DHT22;8251;53.568;10.018;2023-04-24T05:07:08;15.20;70.10
16287;DHT22;8251;53.568;10.018;2023-04-24T05:09:35;15.20;70.10
16287;DHT22;8251;53.568;10.018;2023-04-24T05:12:02;15.20;70.30
16287;DHT22;8251;53.568;10.018;2023-04-24T05:14:29;15.20;69.90
16287;DHT22;8251;53.568;10.018;2023-04-24T05:16:56;15.30;69.70
16287;DHT22;8251;53.568;10.018;2023-04-24T05:19:23;15.30;69.40
16287;DHT22;8251;53.568;10.018;2023-04-24T05:21:50;15.40;69.10
16287;DHT22;8251;53.568;10.018;2023-04-24T05:24:19;15.40;68.60
16287;DHT22;8251;53.568;10.018;2023-04-24T05:26:46;15.50;68.70
16287;DHT22;8251;53.568;10.018;2023-04-24T05:29:13;15.50;68.30
16287;DHT22;8251;53.568;10.018;2023-04-24T05:31:42;15.50;68.60
16287;DHT22;8251;53.568;10.018;2023-04-24T05:34:09;15.60;68.60
16287;DHT22;8251;53.568;10.018;2023-04-24T05:36:36;16.00;67.80
16287;DHT22;8251;53.568;10.018;2023-04-24T05:39:09;16.70;66.70
16287;DHT22;8251;53.568;10.018;2023-04-24T05:41:53;17.50;63.90
16287;DHT22;8251;53.568;10.018;2023-04-24T05:44:24;18.20;61.60
16287;DHT22;8251;53.568;10.018;2023-04-24T05:46:51;18.60;59.30
16287;DHT22;8251;53.568;10.018;2023-04-24T05:49:18;18.80;57.50
16287;DHT22;8251;53.568;10.018;2023-04-24T05:51:45;18.60;58.50
16287;DHT22;8251;53.568;10.018;2023-04-24T05:54:13;18.70;58.70
16287;DHT22;8251;53.568;10.018;2023-04-24T05:56:42;18.50;58.80
16287;DHT22;8251;53.568;10.018;2023-04-24T05:59:09;18.20;59.80
16287;DHT22;8251;53.568;10.018;2023-04-24T06:01:35;18.00;60.20
16287;DHT22;8251;53.568;10.018;2023-04-24T06:04:05;17.60;60.40
16287;DHT22;8251;53.568;10.018;2023-04-24T06:06:32;17.40;61.30
16287;DHT22;8251;53.568;10.018;2023-04-24T06:09:00;17.30;61.70
16287;DHT22;8251;53.568;10.018;2023-04-24T06:11:27;17.20;62.70
16287;DHT22;8251;53.568;10.018;2023-04-24T06:13:58;17.20;63.60
16287;DHT22;8251;53.568;10.018;2023-04-24T06:16:27;17.50;63.90
16287;DHT22;8251;53.568;10.018;2023-04-24T06:18:56;17.80;62.00
16287;DHT22;8251;53.568;10.018;2023-04-24T06:21:24;17.80;61.00
16287;DHT22;8251;53.568;10.018;2023-04-24T06:23:55;17.70;61.00
16287;DHT22;8251;53.568;10.018;2023-04-24T06:26:35;17.60;61.40
16287;DHT22;8251;53.568;10.018;2023-04-24T06:29:10;17.40;60.80
16287;DHT22;8251;53.568;10.018;2023-04-24T06:31:37;17.20;61.20
16287;DHT22;8251;53.568;10.018;2023-04-24T06:34:04;17.10;61.70
16287;DHT22;8251;53.568;10.018;2023-04-24T06:36:32;17.20;61.70
16287;DHT22;8251;53.568;10.018;2023-04-24T06:39:00;17.40;63.50
16287;DHT22;8251;53.568;10.018;2023-04-24T06:41:27;17.80;61.10
16287;DHT22;8251;53.568;10.018;2023-04-24T06:43:56;18.20;59.50
16287;DHT22;8251;53.568;10.018;2023-04-24T06:46:31;18.40;59.20
16287;DHT22;8251;53.568;10.018;2023-04-24T06:48:58;18.40;58.60
16287;DHT22;8251;53.568;10.018;2023-04-24T06:51:26;18.20;59.40
16287;DHT22;8251;53.568;10.018;2023-04-24T06:53:53;18.20;59.50
16287;DHT22;8251;53.568;10.018;2023-04-24T06:56:21;18.10;59.10
16287;DHT22;8251;53.568;10.018;2023-04-24T06:58:48;18.00;59.90
16287;DHT22;8251;53.568;10.018;2023-04-24T07:01:15;18.10;59.90
16287;DHT22;8251;53.568;10.018;2023-04-24T07:03:44;18.20;59.80
16287;DHT22;8251;53.568;10.018;2023-04-24T07:06:14;18.00;60.40
16287;DHT22;8251;53.568;10.018;2023-04-24T07:08:44;17.80;60.60
16287;DHT22;8251;53.568;10.018;2023-04-24T07:11:12;17.70;61.00
16287;DHT22;8251;53.568;10.018;2023-04-24T07:13:39;17.60;61.40
16287;DHT22;8251;53.568;10.018;2023-04-24T07:16:09;17.40;62.10
16287;DHT22;8251;53.568;10.018;2023-04-24T07:18:36;17.30;62.60
16287;DHT22;8251;53.568;10.018;2023-04-24T07:21:05;17.30;62.40
16287;DHT22;8251;53.568;10.018;2023-04-24T07:23:32;17.30;62.70
16287;DHT22;8251;53.568;10.018;2023-04-24T07:26:03;17.50;62.40
16287;DHT22;8251;53.568;10.018;2023-04-24T07:28:30;17.90;61.50
16287;DHT22;8251;53.568;10.018;2023-04-24T07:30:57;18.00;60.40
16287;DHT22;8251;53.568;10.018;2023-04-24T07:33:25;17.80;61.00
16287;DHT22;8251;53.568;10.018;2023-04-24T07:35:52;17.80;61.20
16287;DHT22;8251;53.568;10.018;2023-04-24T07:38:20;18.00;61.30
16287;DHT22;8251;53.568;10.018;2023-04-24T07:40:48;18.30;60.60
16287;DHT22;8251;53.568;10.018;2023-04-24T07:43:19;18.60;58.30
16287;DHT22;8251;53.568;10.018;2023-04-24T07:45:50;19.00;58.00
16287;DHT22;8251;53.568;10.018;2023-04-24T07:48:20;19.30;57.10
16287;DHT22;8251;53.568;10.018;2023-04-24T07:50:47;19.70;57.20
16287;DHT22;8251;53.568;10.018;2023-04-24T07:53:14;19.70;56.10
16287;DHT22;8251;53.568;10.018;2023-04-24T07:55:43;19.50;56.70
16287;DHT22;8251;53.568;10.018;2023-04-24T07:58:10;19.40;56.60
16287;DHT22;8251;53.568;10.018;2023-04-24T08:00:38;19.30;56.40
16287;DHT22;8251;53.568;10.018;2023-04-24T08:03:06;19.10;57.00
16287;DHT22;8251;53.568;10.018;2023-04-24T08:05:33;18.80;58.00
16287;DHT22;8251;53.568;10.018;2023-04-24T08:08:00;18.50;58.60
16287;DHT22;8251;53.568;10.018;2023-04-24T08:10:29;18.40;58.90
16287;DHT22;8251;53.568;10.018;2023-04-24T08:12:57;18.20;59.00
16287;DHT22;8251;53.568;10.018;2023-04-24T08:15:24;18.10;60.10
16287;DHT22;8251;53.568;10.018;2023-04-24T08:17:51;18.00;60.80
16287;DHT22;8251;53.568;10.018;2023-04-24T08:20:18;17.90;60.80
16287;DHT22;8251;53.568;10.018;2023-04-24T08:22:45;17.90;59.90
16287;DHT22;8251;53.568;10.018;2023-04-24T08:25:14;17.60;60.90
16287;DHT22;8251;53.568;10.018;2023-04-24T08:27:41;17.40;60.70
16287;DHT22;8251;53.568;10.018;2023-04-24T08:30:10;17.30;61.70
16287;DHT22;8251;53.568;10.018;2023-04-24T08:32:37;17.30;61.50
16287;DHT22;8251;53.568;10.018;2023-04-24T08:35:05;17.30;62.20
16287;DHT22;8251;53.568;10.018;2023-04-24T08:37:34;17.40;61.40
16287;DHT22;8251;53.568;10.018;2023-04-24T08:40:06;17.50;60.80
16287;DHT22;8251;53.568;10.018;2023-04-24T08:42:37;17.60;61.10
16287;DHT22;8251;53.568;10.018;2023-04-24T08:45:05;17.60;60.40
16287;DHT22;8251;53.568;10.018;2023-04-24T08:47:37;17.50;59.70
16287;DHT22;8251;53.568;10.018;2023-04-24T08:50:06;17.50;60.60
16287;DHT22;8251;53.568;10.018;2023-04-24T08:52:34;17.50;62.00
16287;DHT22;8251;53.568;10.018;2023-04-24T08:55:05;17.40;60.90
16287;DHT22;8251;53.568;10.018;2023-04-24T08:57:32;17.40;60.40
16287;DHT22;8251;53.568;10.018;2023-04-24T09:00:02;17.40;60.80
16287;DHT22;8251;53.568;10.018;2023-04-24T09:02:30;17.40;60.70
16287;DHT22;8251;53.568;10.018;2023-04-24T09:05:01;17.40;60.60
16287;DHT22;8251;53.568;10.018;2023-04-24T09:07:37;17.40;61.50
16287;DHT22;8251;53.568;10.018;2023-04-24T09:10:08;17.60;61.20
16287;DHT22;8251;53.568;10.018;2023-04-24T09:12:36;17.70;60.90
16287;DHT22;8251;53.568;10.018;2023-04-24T09:15:04;17.70;59.90
16287;DHT22;8251;53.568;10.018;2023-04-24T09:17:31;17.60;60.80
16287;DHT22;8251;53.568;10.018;2023-04-24T09:19:59;17.50;60.80
16287;DHT22;8251;53.568;10.018;2023-04-24T09:22:29;17.30;61.30
16287;DHT22;8251;53.568;10.018;2023-04-24T09:25:02;17.20;61.00
16287;DHT22;8251;53.568;10.018;2023-04-24T09:27:30;17.20;61.70
16287;DHT22;8251;53.568;10.018;2023-04-24T09:29:58;17.10;61.40
16287;DHT22;8251;53.568;10.018;2023-04-24T09:32:26;17.10;62.50
16287;DHT22;8251;53.568;10.018;2023-04-24T09:35:09;17.10;62.50
16287;DHT22;8251;53.568;10.018;2023-04-24T09:37:40;17.00;63.20
16287;DHT22;8251;53.568;10.018;2023-04-24T09:40:10;17.10;63.40
16287;DHT22;8251;53.568;10.018;2023-04-24T09:42:38;17.10;63.30
16287;DHT22;8251;53.568;10.018;2023-04-24T09:45:09;17.00;63.10
16287;DHT22;8251;53.568;10.018;2023-04-24T09:47:37;17.10;63.10
16287;DHT22;8251;53.568;10.018;2023-04-24T09:50:11;17.00;62.60
16287;DHT22;8251;53.568;10.018;2023-04-24T09:52:55;17.00;62.70
16287;DHT22;8251;53.568;10.018;2023-04-24T09:55:23;16.90;63.00
16287;DHT22;8251;53.568;10.018;2023-04-24T09:57:53;16.80;63.60
16287;DHT22;8251;53.568;10.018;2023-04-24T10:00:25;16.70;63.80
16287;DHT22;8251;53.568;10.018;2023-04-24T10:02:56;16.50;64.90
16287;DHT22;8251;53.568;10.018;2023-04-24T10:05:27;16.40;64.50
16287;DHT22;8251;53.568;10.018;2023-04-24T10:08:00;16.50;64.30
16287;DHT22;8251;53.568;10.018;2023-04-24T10:10:27;16.50;65.70
16287;DHT22;8251;53.568;10.018;2023-04-24T10:12:55;16.50;66.10
16287;DHT22;8251;53.568;10.018;2023-04-24T10:15:26;16.50;65.70
16287;DHT22;8251;53.568;10.018;2023-04-24T10:18:01;16.50;64.90
16287;DHT22;8251;53.568;10.018;2023-04-24T10:20:33;16.40;64.90
16287;DHT22;8251;53.568;10.018;2023-04-24T10:23:02;16.40;65.30
16287;DHT22;8251;53.568;10.018;2023-04-24T10:25:31;16.40;64.50
16287;DHT22;8251;53.568;10.018;2023-04-24T10:27:59;16.30;65.60
16287;DHT22;8251;53.568;10.018;2023-04-24T10:30:31;16.40;66.50
16287;DHT22;8251;53.568;10.018;2023-04-24T10:33:01;16.40;66.30
16287;DHT22;8251;53.568;10.018;2023-04-24T10:35:36;16.20;66.40
16287;DHT22;8251;53.568;10.018;2023-04-24T10:38:08;16.10;66.60
16287;DHT22;8251;53.568;10.018;2023-04-24T10:40:36;16.00;67.10
16287;DHT22;8251;53.568;10.018;2023-04-24T10:43:04;16.00;68.00
16287;DHT22;8251;53.568;10.018;2023-04-24T10:45:33;16.00;68.10
16287;DHT22;8251;53.568;10.018;2023-04-24T10:48:02;16.10;67.90
16287;DHT22;8251;53.568;10.018;2023-04-24T10:50:41;16.10;67.40
16287;DHT22;8251;53.568;10.018;2023-04-24T10:53:18;16.20;67.20
16287;DHT22;8251;53.568;10.018;2023-04-24T10:55:47;16.30;67.00
16287;DHT22;8251;53.568;10.018;2023-04-24T10:58:15;16.20;67.20
16287;DHT22;8251;53.568;10.018;2023-04-24T11:00:43;16.20;67.00
16287;DHT22;8251;53.568;10.018;2023-04-24T11:03:25;16.20;67.40
16287;DHT22;8251;53.568;10.018;2023-04-24T11:05:55;16.20;67.60
16287;DHT22;8251;53.568;10.018;2023-04-24T11:08:28;16.30;66.40
16287;DHT22;8251;53.568;10.018;2023-04-24T11:10:58;16.40;65.70
16287;DHT22;8251;53.568;10.018;2023-04-24T11:13:27;16.50;64.70
16287;DHT22;8251;53.568;10.018;2023-04-24T11:16:14;16.60;63.90
16287;DHT22;8251;53.568;10.018;2023-04-24T11:18:42;16.60;64.50
16287;DHT22;8251;53.568;10.018;2023-04-24T11:21:17;16.70;62.90
16287;DHT22;8251;53.568;10.018;2023-04-24T11:23:47;16.70;62.50
16287;DHT22;8251;53.568;10.018;2023-04-24T11:26:21;16.70;63.30
16287;DHT22;8251;53.568;10.018;2023-04-24T11:29:07;16.60;63.50
16287;DHT22;8251;53.568;10.018;2023-04-24T11:31:37;16.50;63.70
16287;DHT22;8251;53.568;10.018;2023-04-24T11:34:09;16.40;63.90
16287;DHT22;8251;53.568;10.018;2023-04-24T11:36:37;16.40;63.90
16287;DHT22;8251;53.568;10.018;2023-04-24T11:39:06;16.50;63.70
16287;DHT22;8251;53.568;10.018;2023-04-24T11:41:37;16.50;64.20
16287;DHT22;8251;53.568;10.018;2023-04-24T11:44:06;16.60;63.80
16287;DHT22;8251;53.568;10.018;2023-04-24T11:46:35;16.90;62.20
16287;DHT22;8251;53.568;10.018;2023-04-24T11:49:03;17.20;62.90
16287;DHT22;8251;53.568;10.018;2023-04-24T11:51:30;17.40;60.40
16287;DHT22;8251;53.568;10.018;2023-04-24T11:53:58;17.50;60.10
16287;DHT22;8251;53.568;10.018;2023-04-24T11:56:27;17.50;60.40
16287;DHT22;8251;53.568;10.018;2023-04-24T11:58:58;17.50;58.10
16287;DHT22;8251;53.568;10.018;2023-04-24T12:01:26;17.40;58.50
16287;DHT22;8251;53.568;10.018;2023-04-24T12:03:59;17.10;60.70
16287;DHT22;8251;53.568;10.018;2023-04-24T12:06:26;17.00;59.60
16287;DHT22;8251;53.568;10.018;2023-04-24T12:08:53;16.90;61.40
16287;DHT22;8251;53.568;10.018;2023-04-24T12:11:23;16.80;61.60
16287;DHT22;8251;53.568;10.018;2023-04-24T12:13:51;16.90;62.20
16287;DHT22;8251;53.568;10.018;2023-04-24T12:16:19;16.90;60.50
16287;DHT22;8251;53.568;10.018;2023-04-24T12:18:46;16.90;60.00
16287;DHT22;8251;53.568;10.018;2023-04-24T12:21:17;17.00;60.40
16287;DHT22;8251;53.568;10.018;2023-04-24T12:23:44;17.00;60.00
16287;DHT22;8251;53.568;10.018;2023-04-24T12:26:12;17.00;60.10
16287;DHT22;8251;53.568;10.018;2023-04-24T12:28:39;16.80;59.80
16287;DHT22;8251;53.568;10.018;2023-04-24T12:31:07;16.70;60.20
16287;DHT22;8251;53.568;10.018;2023-04-24T12:33:35;16.70;60.60
16287;DHT22;8251;53.568;10.018;2023-04-24T12:36:03;16.70;61.40
16287;DHT22;8251;53.568;10.018;2023-04-24T12:38:34;16.60;62.40
16287;DHT22;8251;53.568;10.018;2023-04-24T12:41:07;16.60;62.40
16287;DHT22;8251;53.568;10.018;2023-04-24T12:43:36;16.50;63.30
16287;DHT22;8251;53.568;10.018;2023-04-24T12:46:03;16.40;62.20
16287;DHT22;8251;53.568;10.018;2023-04-24T12:48:31;16.30;63.70
16287;DHT22;8251;53.568;10.018;2023-04-24T12:50:59;16.20;64.50
16287;DHT22;8251;53.568;10.018;2023-04-24T12:53:28;16.10;64.90
16287;DHT22;8251;53.568;10.018;2023-04-24T12:55:57;16.10;65.60
16287;DHT22;8251;53.568;10.018;2023-04-24T12:58:24;16.00;65.70
16287;DHT22;8251;53.568;10.018;2023-04-24T13:00:51;15.90;66.30
16287;DHT22;8251;53.568;10.018;2023-04-24T13:03:18;15.80;66.40
16287;DHT22;8251;53.568;10.018;2023-04-24T13:05:49;15.70;66.60
16287;DHT22;8251;53.568;10.018;2023-04-24T13:08:16;15.60;68.40
16287;DHT22;8251;53.568;10.018;2023-04-24T13:10:44;15.60;69.10
16287;DHT22;8251;53.568;10.018;2023-04-24T13:13:11;15.60;68.40
16287;DHT22;8251;53.568;10.018;2023-04-24T13:15:38;15.60;68.60
16287;DHT22;8251;53.568;10.018;2023-04-24T13:18:05;15.50;68.50
16287;DHT22;8251;53.568;10.018;2023-04-24T13:20:32;15.40;67.80
16287;DHT22;8251;53.568;10.018;2023-04-24T13:23:02;15.40;67.90
16287;DHT22;8251;53.568;10.018;2023-04-24T13:25:35;15.40;69.50
16287;DHT22;8251;53.568;10.018;2023-04-24T13:28:04;15.40;71.00
16287;DHT22;8251;53.568;10.018;2023-04-24T13:30:31;15.50;71.00
16287;DHT22;8251;53.568;10.018;2023-04-24T13:33:00;15.50;70.40
16287;DHT22;8251;53.568;10.018;2023-04-24T13:35:31;15.70;70.00
16287;DHT22;8251;53.568;10.018;2023-04-24T13:37:58;15.80;69.80
16287;DHT22;8251;53.568;10.018;2023-04-24T13:40:28;15.80;68.70
16287;DHT22;8251;53.568;10.018;2023-04-24T13:43:01;15.90;67.80
16287;DHT22;8251;53.568;10.018;2023-04-24T13:45:29;15.90;67.80
16287;DHT22;8251;53.568;10.018;2023-04-24T13:47:56;15.90;67.80
16287;DHT22;8251;53.568;10.018;2023-04-24T13:50:23;15.90;66.70
16287;DHT22;8251;53.568;10.018;2023-04-24T13:52:53;15.90;67.30
16287;DHT22;8251;53.568;10.018;2023-04-24T13:55:22;15.80;67.90
16287;DHT22;8251;53.568;10.018;2023-04-24T13:57:53;15.90;67.70
16287;DHT22;8251;53.568;10.018;2023-04-24T14:00:20;15.70;67.30
16287;DHT22;8251;53.568;10.018;2023-04-24T14:02:47;15.60;67.70
16287;DHT22;8251;53.568;10.018;2023-04-24T14:05:14;15.60;67.70
16287;DHT22;8251;53.568;10.018;2023-04-24T14:07:41;15.50;68.80
16287;DHT22;8251;53.568;10.018;2023-04-24T14:10:09;15.50;69.40
16287;DHT22;8251;53.568;10.018;2023-04-24T14:12:36;15.50;69.50
16287;DHT22;8251;53.568;10.018;2023-04-24T14:15:08;15.50;68.60
16287;DHT22;8251;53.568;10.018;2023-04-24T14:17:36;15.50;67.90
16287;DHT22;8251;53.568;10.018;2023-04-24T14:20:04;15.60;67.10
16287;DHT22;8251;53.568;10.018;2023-04-24T14:22:31;15.60;66.70
16287;DHT22;8251;53.568;10.018;2023-04-24T14:24:58;15.60;66.40
16287;DHT22;8251;53.568;10.018;2023-04-24T14:27:26;15.60;67.30
16287;DHT22;8251;53.568;10.018;2023-04-24T14:29:52;15.60;66.50
16287;DHT22;8251;53.568;10.018;2023-04-24T14:32:21;15.50;67.00
16287;DHT22;8251;53.568;10.018;2023-04-24T14:34:48;15.50;67.70
16287;DHT22;8251;53.568;10.018;2023-04-24T14:37:15;15.50;67.10
16287;DHT22;8251;53.568;10.018;2023-04-24T14:39:44;15.50;67.50
16287;DHT22;8251;53.568;10.018;2023-04-24T14:42:14;15.40;67.30
16287;DHT22;8251;53.568;10.018;2023-04-24T14:44:43;15.40;68.10
16287;DHT22;8251;53.568;10.018;2023-04-24T14:47:10;15.30;69.70
16287;DHT22;8251;53.568;10.018;2023-04-24T14:49:39;15.20;73.80
16287;DHT22;8251;53.568;10.018;2023-04-24T14:52:06;14.90;76.20
16287;DHT22;8251;53.568;10.018;2023-04-24T14:54:32;14.80;78.50
16287;DHT22;8251;53.568;10.018;2023-04-24T14:56:59;14.60;78.70
16287;DHT22;8251;53.568;10.018;2023-04-24T14:59:27;14.40;79.70
16287;DHT22;8251;53.568;10.018;2023-04-24T15:01:54;14.30;80.20
16287;DHT22;8251;53.568;10.018;2023-04-24T15:04:23;14.20;80.90
16287;DHT22;8251;53.568;10.018;2023-04-24T15:06:52;14.10;81.30
16287;DHT22;8251;53.568;10.018;2023-04-24T15:09:20;14.10;82.30
16287;DHT22;8251;53.568;10.018;2023-04-24T15:11:47;14.00;82.70
16287;DHT22;8251;53.568;10.018;2023-04-24T15:14:15;14.00;82.90
16287;DHT22;8251;53.568;10.018;2023-04-24T15:16:42;14.00;83.40
16287;DHT22;8251;53.568;10.018;2023-04-24T15:19:13;14.00;82.30
16287;DHT22;8251;53.568;10.018;2023-04-24T15:21:42;13.90;83.80
16287;DHT22;8251;53.568;10.018;2023-04-24T15:24:11;13.80;84.30
16287;DHT22;8251;53.568;10.018;2023-04-24T15:26:38;13.80;83.70
16287;DHT22;8251;53.568;10.018;2023-04-24T15:29:05;13.60;84.00
16287;DHT22;8251;53.568;10.018;2023-04-24T15:31:32;13.40;84.80
16287;DHT22;8251;53.568;10.018;2023-04-24T15:33:59;13.50;85.40
16287;DHT22;8251;53.568;10.018;2023-04-24T15:36:26;13.50;86.00
16287;DHT22;8251;53.568;10.018;2023-04-24T15:38:53;13.40;85.70